createdAt,value
2023-01-30T00:01:58.575Z,99.90
2023-01-30T00:04:25.188Z,99.90
2023-01-30T00:06:51.790Z,99.90
2023-01-30T00:09:18.354Z,99.90
2023-01-30T00:11:44.941Z,99.90
2023-01-30T00:14:11.507Z,99.90
2023-01-30T00:16:38.185Z,99.90
2023-01-30T00:19:04.922Z,99.90
2023-01-30T00:21:31.500Z,99.90
2023-01-30T00:23:59.729Z,99.90
2023-01-30T00:26:26.565Z,99.90
2023-01-30T00:28:53.175Z,99.90
2023-01-30T00:31:19.762Z,99.90
2023-01-30T00:33:46.348Z,99.90
2023-01-30T00:36:12.988Z,99.90
2023-01-30T00:38:39.585Z,99.90
2023-01-30T00:41:06.184Z,99.90
2023-01-30T00:43:51.287Z,99.90
2023-01-30T00:46:51.767Z,99.90
2023-01-30T00:49:18.654Z,99.90
2023-01-30T00:51:45.441Z,99.90
2023-01-30T00:54:12.034Z,99.90
2023-01-30T00:56:38.624Z,99.90
2023-01-30T00:59:05.215Z,99.90
2023-01-30T01:01:31.867Z,99.90
2023-01-30T01:03:58.487Z,99.90
2023-01-30T01:06:25.069Z,99.90
2023-01-30T01:08:51.677Z,99.90
2023-01-30T01:11:24.307Z,99.90
2023-01-30T01:13:56.568Z,99.90
2023-01-30T01:16:24.025Z,99.90
2023-01-30T01:18:51.066Z,99.90
2023-01-30T01:21:20.216Z,99.90
2023-01-30T01:23:55.883Z,99.90
2023-01-30T01:26:23.096Z,99.90
2023-01-30T01:28:50.050Z,99.90
2023-01-30T01:31:17.516Z,99.90
2023-01-30T01:33:44.213Z,99.90
2023-01-30T01:36:11.364Z,99.90
2023-01-30T01:38:38.946Z,99.90
2023-01-30T01:41:06.277Z,99.90
2023-01-30T01:43:38.717Z,99.90
2023-01-30T01:46:12.059Z,99.90
2023-01-30T01:48:53.354Z,99.90
2023-01-30T01:51:31.835Z,99.90
2023-01-30T01:54:08.397Z,99.90
2023-01-30T01:56:37.570Z,99.90
2023-01-30T01:59:27.785Z,99.90
2023-01-30T02:01:59.790Z,99.90
2023-01-30T02:04:46.539Z,99.90
2023-01-30T02:07:14.456Z,99.90
2023-01-30T02:09:41.050Z,99.90
2023-01-30T02:12:09.264Z,99.90
2023-01-30T02:14:37.245Z,99.90
2023-01-30T02:17:03.923Z,99.90
2023-01-30T02:19:47.147Z,99.90
2023-01-30T02:22:18.175Z,99.90
2023-01-30T02:25:21.942Z,99.90
2023-01-30T02:28:24.880Z,99.90
2023-01-30T02:31:21.955Z,99.90
2023-01-30T02:34:05.228Z,99.90
2023-01-30T02:37:02.255Z,99.90
2023-01-30T02:39:37.885Z,99.90
2023-01-30T02:42:18.039Z,99.90
2023-01-30T02:44:58.358Z,99.90
2023-01-30T02:47:38.395Z,99.90
2023-01-30T02:50:15.812Z,99.90
2023-01-30T02:52:43.171Z,99.90
2023-01-30T02:55:19.034Z,99.90
2023-01-30T02:57:45.792Z,99.90
2023-01-30T03:00:15.003Z,99.90
2023-01-30T03:03:07.065Z,99.90
2023-01-30T03:05:59.559Z,99.90
2023-01-30T03:08:38.063Z,99.90
2023-01-30T03:11:07.215Z,99.90
2023-01-30T03:13:48.513Z,99.90
2023-01-30T03:16:23.459Z,99.90
2023-01-30T03:18:50.502Z,99.90
2023-01-30T03:21:17.489Z,99.90
2023-01-30T03:23:47.307Z,99.90
2023-01-30T03:26:23.442Z,99.90
2023-01-30T03:28:51.359Z,99.90
2023-01-30T03:31:18.041Z,99.90
2023-01-30T03:33:44.784Z,99.90
2023-01-30T03:36:11.805Z,99.90
2023-01-30T03:38:38.397Z,99.90
2023-01-30T03:41:05.573Z,99.90
2023-01-30T03:43:32.159Z,99.90
2023-01-30T03:45:58.757Z,99.90
2023-01-30T03:48:25.333Z,99.90
2023-01-30T03:50:51.983Z,99.90
2023-01-30T03:53:18.553Z,99.90
2023-01-30T03:55:45.541Z,99.90
2023-01-30T03:58:12.299Z,99.90
2023-01-30T04:00:38.879Z,99.90
2023-01-30T04:03:05.464Z,99.90
2023-01-30T04:05:32.019Z,99.90
2023-01-30T04:07:58.977Z,99.90
2023-01-30T04:10:26.881Z,99.90
2023-01-30T04:12:53.495Z,99.90
2023-01-30T04:15:20.441Z,99.90
2023-01-30T04:17:47.856Z,99.90
2023-01-30T04:20:14.492Z,99.90
2023-01-30T04:22:41.160Z,99.90
2023-01-30T04:25:08.223Z,99.90
2023-01-30T04:27:34.773Z,99.90
2023-01-30T04:30:01.339Z,99.90
2023-01-30T04:32:27.908Z,99.90
2023-01-30T04:34:54.511Z,99.90
2023-01-30T04:37:21.060Z,99.90
2023-01-30T04:39:47.598Z,99.90
2023-01-30T04:42:14.203Z,99.90
2023-01-30T04:44:40.817Z,99.90
2023-01-30T04:47:07.387Z,99.90
2023-01-30T04:49:33.959Z,99.90
2023-01-30T04:52:00.498Z,99.90
2023-01-30T04:54:27.072Z,99.90
2023-01-30T04:56:53.695Z,99.90
2023-01-30T04:59:20.240Z,99.90
2023-01-30T05:01:46.819Z,99.90
2023-01-30T05:04:13.399Z,99.90
2023-01-30T05:06:39.941Z,99.90
2023-01-30T05:09:07.250Z,99.90
2023-01-30T05:11:34.095Z,99.90
2023-01-30T05:14:00.954Z,99.90
2023-01-30T05:16:27.839Z,99.90
2023-01-30T05:18:54.442Z,99.90
2023-01-30T05:21:28.375Z,99.90
2023-01-30T05:23:56.704Z,99.90
2023-01-30T05:26:24.284Z,99.90
2023-01-30T05:28:53.396Z,99.90
2023-01-30T05:31:20.443Z,99.90
2023-01-30T05:33:49.073Z,99.90
2023-01-30T05:36:21.278Z,99.90
2023-01-30T05:38:48.021Z,99.90
2023-01-30T05:41:16.294Z,99.90
2023-01-30T05:43:43.384Z,99.90
2023-01-30T05:46:11.994Z,99.90
2023-01-30T05:48:38.803Z,99.90
2023-01-30T05:51:05.673Z,99.90
2023-01-30T05:53:37.186Z,99.90
2023-01-30T05:56:05.579Z,99.90
2023-01-30T05:58:32.928Z,99.90
2023-01-30T06:01:04.162Z,99.90
2023-01-30T06:03:31.826Z,99.90
2023-01-30T06:05:58.626Z,99.90
2023-01-30T06:08:25.355Z,99.90
2023-01-30T06:10:51.975Z,99.90
2023-01-30T06:13:18.540Z,99.90
2023-01-30T06:15:45.546Z,99.90
2023-01-30T06:18:12.248Z,99.90
2023-01-30T06:20:38.921Z,99.90
2023-01-30T06:23:05.516Z,99.90
2023-01-30T06:25:32.107Z,99.90
2023-01-30T06:27:58.646Z,99.90
2023-01-30T06:30:25.311Z,99.90
2023-01-30T06:32:52.039Z,99.90
2023-01-30T06:35:19.306Z,99.90
2023-01-30T06:37:46.125Z,99.90
2023-01-30T06:40:13.440Z,99.90
2023-01-30T06:42:45.060Z,99.90
2023-01-30T06:45:12.467Z,99.90
2023-01-30T06:47:55.364Z,99.90
2023-01-30T06:50:24.243Z,99.90
2023-01-30T06:52:52.039Z,99.90
2023-01-30T06:55:25.376Z,99.90
2023-01-30T06:58:08.719Z,99.90
2023-01-30T07:00:36.410Z,99.90
2023-01-30T07:03:03.030Z,99.90
2023-01-30T07:05:29.712Z,99.90
2023-01-30T07:07:56.427Z,99.90
2023-01-30T07:10:23.835Z,99.90
2023-01-30T07:12:50.409Z,99.90
2023-01-30T07:15:17.416Z,99.90
2023-01-30T07:17:44.256Z,99.90
2023-01-30T07:20:11.745Z,99.90
2023-01-30T07:22:38.527Z,99.90
2023-01-30T07:25:05.793Z,99.90
2023-01-30T07:27:32.595Z,99.90
2023-01-30T07:29:59.160Z,99.90
2023-01-30T07:32:25.787Z,99.90
2023-01-30T07:34:52.331Z,99.90
2023-01-30T07:37:18.919Z,99.90
2023-01-30T07:39:45.462Z,99.90
2023-01-30T07:42:12.009Z,99.90
2023-01-30T07:44:38.566Z,99.90
2023-01-30T07:47:05.413Z,99.90
2023-01-30T07:49:31.983Z,99.90
2023-01-30T07:51:58.545Z,99.90
2023-01-30T07:54:26.556Z,99.90
2023-01-30T07:56:53.370Z,99.90
2023-01-30T07:59:20.005Z,99.90
2023-01-30T08:01:46.567Z,99.90
2023-01-30T08:04:13.240Z,99.90
2023-01-30T08:06:39.886Z,99.90
2023-01-30T08:09:07.208Z,99.90
2023-01-30T08:11:34.474Z,99.90
2023-01-30T08:14:01.205Z,99.90
2023-01-30T08:16:28.028Z,99.90
2023-01-30T08:18:54.603Z,99.90
2023-01-30T08:21:24.199Z,99.90
2023-01-30T08:23:50.904Z,99.90
2023-01-30T08:26:17.773Z,99.90
2023-01-30T08:28:44.456Z,99.90
2023-01-30T08:31:12.896Z,99.90
2023-01-30T08:33:39.597Z,99.90
2023-01-30T08:36:06.611Z,99.90
2023-01-30T08:38:33.234Z,99.90
2023-01-30T08:41:00.944Z,99.90
2023-01-30T08:43:27.562Z,99.90
2023-01-30T08:45:55.108Z,99.90
2023-01-30T08:48:22.008Z,99.90
2023-01-30T08:50:52.085Z,99.90
2023-01-30T08:53:18.861Z,99.90
2023-01-30T08:55:45.621Z,99.90
2023-01-30T08:58:12.182Z,99.90
2023-01-30T09:00:39.744Z,99.90
2023-01-30T09:03:06.331Z,99.90
2023-01-30T09:05:32.923Z,99.90
2023-01-30T09:07:59.535Z,99.90
2023-01-30T09:10:26.224Z,99.90
2023-01-30T09:12:52.875Z,99.90
2023-01-30T09:15:19.490Z,99.90
2023-01-30T09:17:46.097Z,99.90
2023-01-30T09:20:13.070Z,99.90
2023-01-30T09:22:39.792Z,99.90
2023-01-30T09:25:06.880Z,99.90
2023-01-30T09:27:33.475Z,99.90
2023-01-30T09:30:00.047Z,99.90
2023-01-30T09:32:26.684Z,99.90
2023-01-30T09:34:53.414Z,99.90
2023-01-30T09:37:19.978Z,99.90
2023-01-30T09:39:46.577Z,99.90
2023-01-30T09:42:33.630Z,99.90
2023-01-30T09:45:03.435Z,99.90
2023-01-30T09:47:39.341Z,99.90
2023-01-30T09:50:40.140Z,99.90
2023-01-30T09:53:16.119Z,99.90
2023-01-30T09:55:43.370Z,99.90
2023-01-30T09:58:22.604Z,99.90
2023-01-30T10:00:52.944Z,99.90
2023-01-30T10:03:23.252Z,99.90
2023-01-30T10:05:58.699Z,99.90
2023-01-30T10:08:52.531Z,99.90
2023-01-30T10:11:38.784Z,99.90
2023-01-30T10:14:33.716Z,99.90
2023-01-30T10:17:33.027Z,99.90
2023-01-30T10:20:23.761Z,99.90
2023-01-30T10:23:11.173Z,99.90
2023-01-30T10:25:47.063Z,99.90
2023-01-30T10:28:31.701Z,99.90
2023-01-30T10:31:13.608Z,99.90
2023-01-30T10:34:01.219Z,99.90
2023-01-30T10:36:50.286Z,99.90
2023-01-30T10:39:30.946Z,99.90
2023-01-30T10:42:13.199Z,99.90
2023-01-30T10:44:42.578Z,99.90
2023-01-30T10:47:38.045Z,99.90
2023-01-30T10:50:29.446Z,99.90
2023-01-30T10:53:34.668Z,99.90
2023-01-30T10:56:15.743Z,99.90
2023-01-30T10:59:03.302Z,99.90
2023-01-30T11:01:45.209Z,99.90
2023-01-30T11:04:24.751Z,99.90
2023-01-30T11:06:53.287Z,99.90
2023-01-30T11:09:19.837Z,99.90
2023-01-30T11:11:52.233Z,99.90
2023-01-30T11:14:27.895Z,99.90
2023-01-30T11:16:55.690Z,99.90
2023-01-30T11:19:34.362Z,99.90
2023-01-30T11:22:03.840Z,99.90
2023-01-30T11:24:42.801Z,99.90
2023-01-30T11:27:28.627Z,99.90
2023-01-30T11:30:12.330Z,99.90
2023-01-30T11:32:39.012Z,99.90
2023-01-30T11:35:08.362Z,99.90
2023-01-30T11:37:40.754Z,99.90
2023-01-30T11:40:28.296Z,99.90
2023-01-30T11:43:12.575Z,99.90
2023-01-30T11:45:46.497Z,99.90
2023-01-30T11:48:33.281Z,99.90
2023-01-30T11:51:09.216Z,99.90
2023-01-30T11:53:38.008Z,99.90
2023-01-30T11:56:20.085Z,99.90
2023-01-30T11:58:58.012Z,99.90
2023-01-30T12:01:30.927Z,99.90
2023-01-30T12:03:58.595Z,99.90
2023-01-30T12:06:32.243Z,99.90
2023-01-30T12:08:59.653Z,99.90
2023-01-30T12:11:52.288Z,99.90
2023-01-30T12:14:50.783Z,99.90
2023-01-30T12:17:42.623Z,99.90
2023-01-30T12:20:50.826Z,99.90
2023-01-30T12:23:40.531Z,99.90
2023-01-30T12:26:37.159Z,99.90
2023-01-30T12:29:22.937Z,99.90
2023-01-30T12:32:29.217Z,99.70
2023-01-30T12:34:56.280Z,97.90
2023-01-30T12:37:49.795Z,96.50
2023-01-30T12:40:25.444Z,95.50
2023-01-30T12:42:55.153Z,96.90
2023-01-30T12:45:25.150Z,97.30
2023-01-30T12:48:11.842Z,97.00
2023-01-30T12:50:57.021Z,97.40
2023-01-30T12:53:27.332Z,98.00
2023-01-30T12:56:05.554Z,98.00
2023-01-30T12:58:43.638Z,98.50
2023-01-30T13:01:22.236Z,98.40
2023-01-30T13:03:59.654Z,98.10
2023-01-30T13:06:50.038Z,97.80
2023-01-30T13:09:28.713Z,96.70
2023-01-30T13:12:04.889Z,96.70
2023-01-30T13:14:50.002Z,97.00
2023-01-30T13:17:25.256Z,97.50
2023-01-30T13:20:01.406Z,96.60
2023-01-30T13:22:43.561Z,96.50
2023-01-30T13:25:38.549Z,96.90
2023-01-30T13:28:21.218Z,96.00
2023-01-30T13:30:51.010Z,96.50
2023-01-30T13:33:25.251Z,96.90
2023-01-30T13:35:57.676Z,95.10
2023-01-30T13:38:26.999Z,94.90
2023-01-30T13:40:56.558Z,93.70
2023-01-30T13:43:31.688Z,93.60
2023-01-30T13:46:03.327Z,92.20
2023-01-30T13:48:46.702Z,92.90
2023-01-30T13:51:44.769Z,93.10
2023-01-30T13:54:20.488Z,94.00
2023-01-30T13:57:20.960Z,94.90
2023-01-30T14:00:19.396Z,96.00
2023-01-30T14:03:07.294Z,96.10
2023-01-30T14:06:21.600Z,96.90
2023-01-30T14:08:53.351Z,96.70
2023-01-30T14:11:38.851Z,97.40
2023-01-30T14:14:31.784Z,97.10
2023-01-30T14:17:10.063Z,97.70
2023-01-30T14:19:40.834Z,97.70
2023-01-30T14:22:23.480Z,97.20
2023-01-30T14:25:27.379Z,96.90
2023-01-30T14:28:02.495Z,97.20
2023-01-30T14:30:31.968Z,97.10
2023-01-30T14:33:00.565Z,96.80
2023-01-30T14:35:29.260Z,97.90
2023-01-30T14:38:18.047Z,98.00
2023-01-30T14:41:08.614Z,98.80
2023-01-30T14:43:36.485Z,99.90
2023-01-30T14:46:08.750Z,99.90
2023-01-30T14:48:49.897Z,99.90
2023-01-30T14:51:45.260Z,99.90
2023-01-30T14:54:11.795Z,99.90
2023-01-30T14:56:55.722Z,99.90
2023-01-30T14:59:31.554Z,99.90
2023-01-30T15:02:06.781Z,99.90
2023-01-30T15:04:46.032Z,99.90
2023-01-30T15:07:19.103Z,99.90
2023-01-30T15:10:06.538Z,99.90
2023-01-30T15:12:58.163Z,99.90
2023-01-30T15:16:03.122Z,99.90
2023-01-30T15:19:03.501Z,99.90
2023-01-30T15:21:56.440Z,99.90
2023-01-30T15:24:41.813Z,99.90
2023-01-30T15:27:14.216Z,99.90
2023-01-30T15:30:05.875Z,99.90
2023-01-30T15:32:33.320Z,99.90
2023-01-30T15:35:16.357Z,99.90
2023-01-30T15:37:45.889Z,99.90
2023-01-30T15:40:15.392Z,99.90
2023-01-30T15:43:00.702Z,99.90
2023-01-30T15:45:37.804Z,99.90
2023-01-30T15:48:25.633Z,99.90
2023-01-30T15:50:59.063Z,99.90
2023-01-30T15:53:40.183Z,99.90
2023-01-30T15:56:09.887Z,99.90
2023-01-30T15:58:40.978Z,99.90
2023-01-30T16:01:08.545Z,99.90
2023-01-30T16:03:40.733Z,99.90
2023-01-30T16:06:09.262Z,99.90
2023-01-30T16:08:36.917Z,99.90
2023-01-30T16:11:03.746Z,99.90
2023-01-30T16:13:33.024Z,99.90
2023-01-30T16:16:12.441Z,99.90
2023-01-30T16:18:51.223Z,99.90
2023-01-30T16:21:21.998Z,99.90
2023-01-30T16:24:18.097Z,99.90
2023-01-30T16:26:48.319Z,99.90
2023-01-30T16:29:23.960Z,99.90
2023-01-30T16:31:52.835Z,99.90
2023-01-30T16:34:28.222Z,99.90
2023-01-30T16:36:55.686Z,99.90
2023-01-30T16:39:40.342Z,99.90
2023-01-30T16:42:25.155Z,99.90
2023-01-30T16:44:52.496Z,99.90
2023-01-30T16:47:31.364Z,99.90
2023-01-30T16:49:57.942Z,99.90
2023-01-30T16:52:36.990Z,99.90
2023-01-30T16:55:07.937Z,99.90
2023-01-30T16:57:42.568Z,99.90
2023-01-30T17:00:32.274Z,99.90
2023-01-30T17:03:01.665Z,99.90
2023-01-30T17:05:30.420Z,99.90
2023-01-30T17:07:58.107Z,99.90
2023-01-30T17:10:40.010Z,99.90
2023-01-30T17:13:36.803Z,99.90
2023-01-30T17:16:21.807Z,99.90
2023-01-30T17:18:53.621Z,99.90
2023-01-30T17:21:22.752Z,99.90
2023-01-30T17:24:01.771Z,99.90
2023-01-30T17:26:28.686Z,99.90
2023-01-30T17:28:55.327Z,99.90
2023-01-30T17:31:22.737Z,99.90
2023-01-30T17:33:49.385Z,99.90
2023-01-30T17:36:24.997Z,99.90
2023-01-30T17:38:52.517Z,99.90
2023-01-30T17:41:29.997Z,99.90
2023-01-30T17:43:57.198Z,99.90
2023-01-30T17:46:32.059Z,99.90
2023-01-30T17:48:58.641Z,99.90
2023-01-30T17:51:25.235Z,99.90
2023-01-30T17:53:51.848Z,99.90
2023-01-30T17:56:29.969Z,99.90
2023-01-30T17:58:56.535Z,99.90
2023-01-30T18:01:23.112Z,99.90
2023-01-30T18:03:49.739Z,99.90
2023-01-30T18:06:16.536Z,99.90
2023-01-30T18:08:43.107Z,99.90
2023-01-30T18:11:11.821Z,99.90
2023-01-30T18:13:39.585Z,99.90
2023-01-30T18:16:06.987Z,99.90
2023-01-30T18:18:33.762Z,99.90
2023-01-30T18:21:00.404Z,99.90
2023-01-30T18:23:26.942Z,99.90
2023-01-30T18:25:53.471Z,99.90
2023-01-30T18:28:20.042Z,99.90
2023-01-30T18:30:46.665Z,99.90
2023-01-30T18:33:13.300Z,99.90
2023-01-30T18:35:39.878Z,99.90
2023-01-30T18:38:06.486Z,99.90
2023-01-30T18:40:33.076Z,99.90
2023-01-30T18:42:59.666Z,99.90
2023-01-30T18:45:26.297Z,99.90
2023-01-30T18:47:54.345Z,99.90
2023-01-30T18:50:21.307Z,99.90
2023-01-30T18:52:48.265Z,99.90
2023-01-30T18:55:14.923Z,99.90
2023-01-30T18:57:41.492Z,99.90
2023-01-30T19:00:08.694Z,99.90
2023-01-30T19:02:35.317Z,99.90
2023-01-30T19:05:01.949Z,99.90
2023-01-30T19:07:28.552Z,99.90
2023-01-30T19:09:56.265Z,99.90
2023-01-30T19:12:42.315Z,99.90
2023-01-30T19:15:09.340Z,99.90
2023-01-30T19:17:35.891Z,99.90
2023-01-30T19:20:04.678Z,99.90
2023-01-30T19:22:31.198Z,99.90
2023-01-30T19:24:57.759Z,99.90
2023-01-30T19:27:25.841Z,99.90
2023-01-30T19:29:52.625Z,99.90
2023-01-30T19:32:19.194Z,99.90
2023-01-30T19:34:45.776Z,99.90
2023-01-30T19:37:12.350Z,99.90
2023-01-30T19:39:38.972Z,99.90
2023-01-30T19:42:05.595Z,99.90
2023-01-30T19:44:32.182Z,99.90
2023-01-30T19:46:58.765Z,99.90
2023-01-30T19:49:25.301Z,99.90
2023-01-30T19:51:51.859Z,99.90
2023-01-30T19:54:18.725Z,99.90
2023-01-30T19:56:48.212Z,99.90
2023-01-30T19:59:16.445Z,99.90
2023-01-30T20:01:43.177Z,99.90
2023-01-30T20:04:09.986Z,99.90
2023-01-30T20:06:38.103Z,99.90
2023-01-30T20:09:11.005Z,99.90
2023-01-30T20:11:39.565Z,99.90
2023-01-30T20:14:07.045Z,99.90
2023-01-30T20:16:35.510Z,99.90
2023-01-30T20:19:05.186Z,99.90
2023-01-30T20:21:32.242Z,99.90
2023-01-30T20:24:00.053Z,99.90
2023-01-30T20:26:30.101Z,99.90
2023-01-30T20:28:58.012Z,99.90
2023-01-30T20:31:27.350Z,99.90
2023-01-30T20:33:57.284Z,99.90
2023-01-30T20:36:26.095Z,99.90
2023-01-30T20:38:53.785Z,99.90
2023-01-30T20:41:23.037Z,99.90
2023-01-30T20:43:57.186Z,99.90
2023-01-30T20:46:27.152Z,99.90
2023-01-30T20:48:55.060Z,99.90
2023-01-30T20:51:29.331Z,99.90
2023-01-30T20:54:01.758Z,99.90
2023-01-30T20:56:39.776Z,99.90
2023-01-30T20:59:07.647Z,99.90
2023-01-30T21:01:34.390Z,99.90
2023-01-30T21:04:05.909Z,99.90
2023-01-30T21:06:41.309Z,99.90
2023-01-30T21:09:17.705Z,99.90
2023-01-30T21:11:44.764Z,99.90
2023-01-30T21:14:11.809Z,99.90
2023-01-30T21:16:39.375Z,99.90
2023-01-30T21:19:08.160Z,99.90
2023-01-30T21:21:39.112Z,99.90
2023-01-30T21:24:09.035Z,99.90
2023-01-30T21:26:38.136Z,99.90
2023-01-30T21:29:08.231Z,99.90
2023-01-30T21:31:37.444Z,99.90
2023-01-30T21:34:04.775Z,99.90
2023-01-30T21:36:31.601Z,99.90
2023-01-30T21:39:16.617Z,99.90
2023-01-30T21:42:03.387Z,99.90
2023-01-30T21:44:32.559Z,99.90
2023-01-30T21:46:59.681Z,99.90
2023-01-30T21:49:27.836Z,99.90
2023-01-30T21:51:55.217Z,99.90
2023-01-30T21:54:21.987Z,99.90
2023-01-30T21:56:49.481Z,99.90
2023-01-30T21:59:16.514Z,99.90
2023-01-30T22:01:43.404Z,99.90
2023-01-30T22:04:13.837Z,99.90
2023-01-30T22:06:41.459Z,99.90
2023-01-30T22:09:08.735Z,99.90
2023-01-30T22:11:37.707Z,99.90
2023-01-30T22:14:04.435Z,99.90
2023-01-30T22:16:33.522Z,99.90
2023-01-30T22:19:03.229Z,99.90
2023-01-30T22:21:33.965Z,99.90
2023-01-30T22:24:02.451Z,99.90
2023-01-30T22:26:29.427Z,99.90
2023-01-30T22:28:58.117Z,99.90
2023-01-30T22:31:26.266Z,99.90
2023-01-30T22:33:55.441Z,99.90
2023-01-30T22:36:25.628Z,99.90
2023-01-30T22:38:52.335Z,99.90
2023-01-30T22:41:22.457Z,99.90
2023-01-30T22:43:57.791Z,99.90
2023-01-30T22:46:27.536Z,99.90
2023-01-30T22:48:54.665Z,99.90
2023-01-30T22:51:26.279Z,99.90
2023-01-30T22:53:55.534Z,99.90
2023-01-30T22:56:27.728Z,99.90
2023-01-30T22:58:54.747Z,99.90
2023-01-30T23:01:33.228Z,99.90
2023-01-30T23:04:04.204Z,99.90
2023-01-30T23:06:31.660Z,99.90
2023-01-30T23:08:59.676Z,99.90
2023-01-30T23:11:29.810Z,99.90
2023-01-30T23:13:59.399Z,99.90
2023-01-30T23:16:27.780Z,99.90
2023-01-30T23:19:01.464Z,99.90
2023-01-30T23:21:37.177Z,99.90
2023-01-30T23:24:05.879Z,99.90
2023-01-30T23:26:34.635Z,99.90
2023-01-30T23:29:03.225Z,99.90
2023-01-30T23:31:30.640Z,99.90
2023-01-30T23:33:59.546Z,99.90
2023-01-30T23:36:26.825Z,99.90
2023-01-30T23:38:55.868Z,99.90
2023-01-30T23:41:33.728Z,99.90
2023-01-30T23:44:00.859Z,99.90
2023-01-30T23:46:33.128Z,99.90
2023-01-30T23:49:02.388Z,99.90
2023-01-30T23:51:30.690Z,99.90
2023-01-30T23:53:57.990Z,99.90
2023-01-30T23:56:27.599Z,99.90
2023-01-30T23:58:54.762Z,99.90
